NOZ1K ESGG-ENGM
Flight info
| Callsign | NOZ1K |
|---|---|
| Flight time | 0h 36m |
| Altitude | 26000 |
| Route | ESGG/21 N0410F260 SABA3J SABAK L997 XENTA DCT REGMA DCT LUNIP LUNI4L ENGM/01L |
| Aircraft | B738/M-SDE2E3FGHIRWXY/LB1 |
Departure
| Time | 2026-05-05 19:17 |
|---|---|
| Airport | Göteborg Landvetter Airport (ESGG) |
Arrival
| Time | 2026-05-05 19:53 |
|---|---|
| Airport | Oslo-Gardermoen International Airport (ENGM) |
| Time | Latitude | Longitude | Altitude | Speed | Heading |
|---|---|---|---|---|---|
| 2026-05-05 18:50 | 57.66938 | 12.29446 | 527 ft | 0 kts | 117° |
| 2026-05-05 19:05 | 57.66950 | 12.29392 | 527 ft | 4 kts | 101° |
| 2026-05-05 19:05 | 57.66952 | 12.29359 | 527 ft | 4 kts | 83° |
| 2026-05-05 19:05 | 57.66940 | 12.29317 | 527 ft | 0 kts | 25° |
| 2026-05-05 19:12 | 57.66946 | 12.29321 | 527 ft | 2 kts | 24° |
| 2026-05-05 19:13 | 57.66970 | 12.29318 | 527 ft | 5 kts | 328° |
| 2026-05-05 19:13 | 57.66990 | 12.29262 | 527 ft | 6 kts | 301° |
| 2026-05-05 19:13 | 57.67021 | 12.29205 | 527 ft | 7 kts | 331° |
| 2026-05-05 19:13 | 57.67066 | 12.29209 | 528 ft | 7 kts | 21° |
| 2026-05-05 19:14 | 57.67130 | 12.29264 | 528 ft | 13 kts | 26° |
| 2026-05-05 19:14 | 57.67217 | 12.29344 | 529 ft | 15 kts | 26° |
| 2026-05-05 19:14 | 57.67310 | 12.29431 | 530 ft | 9 kts | 26° |
| 2026-05-05 19:14 | 57.67331 | 12.29450 | 531 ft | 3 kts | 25° |
| 2026-05-05 19:15 | 57.67355 | 12.29469 | 531 ft | 5 kts | 22° |
| 2026-05-05 19:15 | 57.67397 | 12.29475 | 531 ft | 7 kts | 342° |
| 2026-05-05 19:15 | 57.67429 | 12.29393 | 531 ft | 9 kts | 297° |
| 2026-05-05 19:15 | 57.67456 | 12.29279 | 531 ft | 10 kts | 283° |
| 2026-05-05 19:16 | 57.67451 | 12.29119 | 529 ft | 15 kts | 258° |
| 2026-05-05 19:16 | 57.67400 | 12.28996 | 529 ft | 0 kts | 207° |
| 2026-05-05 19:16 | 57.67377 | 12.28974 | 529 ft | 21 kts | 207° |
| 2026-05-05 19:16 | 57.67035 | 12.28662 | 529 ft | 88 kts | 206° |
| 2026-05-05 19:17 | 57.66303 | 12.27994 | 517 ft | 143 kts | 206° |
| 2026-05-05 19:17 | 57.65278 | 12.27090 | 661 ft | 175 kts | 204° |
| 2026-05-05 19:17 | 57.64154 | 12.26143 | 1217 ft | 184 kts | 204° |
| 2026-05-05 19:17 | 57.63005 | 12.25173 | 2072 ft | 178 kts | 206° |
| 2026-05-05 19:18 | 57.61874 | 12.24163 | 2855 ft | 187 kts | 207° |
| 2026-05-05 19:18 | 57.60619 | 12.22971 | 3144 ft | 216 kts | 208° |
| 2026-05-05 19:18 | 57.59213 | 12.21648 | 3502 ft | 234 kts | 208° |
| 2026-05-05 19:18 | 57.57720 | 12.20120 | 3854 ft | 254 kts | 220° |
| 2026-05-05 19:19 | 57.56694 | 12.17495 | 4720 ft | 252 kts | 251° |
| 2026-05-05 19:19 | 57.56252 | 12.14336 | 5611 ft | 254 kts | 260° |
| 2026-05-05 19:19 | 57.55942 | 12.11099 | 6550 ft | 254 kts | 261° |
| 2026-05-05 19:19 | 57.55634 | 12.07842 | 7417 ft | 256 kts | 261° |
| 2026-05-05 19:20 | 57.55629 | 12.04547 | 8295 ft | 257 kts | 287° |
| 2026-05-05 19:20 | 57.56593 | 12.01768 | 9199 ft | 262 kts | 314° |
| 2026-05-05 19:20 | 57.58135 | 11.99894 | 10023 ft | 272 kts | 334° |
| 2026-05-05 19:20 | 57.60007 | 11.98861 | 10462 ft | 293 kts | 340° |
| 2026-05-05 19:21 | 57.62048 | 11.97989 | 10644 ft | 317 kts | 342° |
| 2026-05-05 19:21 | 57.64279 | 11.97111 | 10984 ft | 334 kts | 342° |
| 2026-05-05 19:21 | 57.66581 | 11.96226 | 11645 ft | 340 kts | 342° |
| 2026-05-05 19:21 | 57.68912 | 11.95324 | 12391 ft | 344 kts | 341° |
| 2026-05-05 19:22 | 57.71267 | 11.94398 | 13134 ft | 347 kts | 341° |
| 2026-05-05 19:22 | 57.73638 | 11.93452 | 13859 ft | 350 kts | 340° |
| 2026-05-05 19:22 | 57.76034 | 11.92484 | 14459 ft | 355 kts | 340° |
| 2026-05-05 19:22 | 57.78463 | 11.91493 | 15090 ft | 358 kts | 340° |
| 2026-05-05 19:23 | 57.80907 | 11.90492 | 15734 ft | 361 kts | 340° |
| 2026-05-05 19:23 | 57.83379 | 11.89474 | 16377 ft | 364 kts | 340° |
| 2026-05-05 19:23 | 57.85866 | 11.88447 | 16993 ft | 368 kts | 340° |
| 2026-05-05 19:23 | 57.88385 | 11.87404 | 17607 ft | 372 kts | 340° |
| 2026-05-05 19:24 | 57.90925 | 11.86350 | 18215 ft | 375 kts | 340° |
| 2026-05-05 19:24 | 57.93487 | 11.85287 | 18774 ft | 379 kts | 339° |
| 2026-05-05 19:24 | 57.96069 | 11.84213 | 19302 ft | 382 kts | 339° |
| 2026-05-05 19:24 | 57.98671 | 11.83128 | 19806 ft | 385 kts | 339° |
| 2026-05-05 19:25 | 58.01296 | 11.82033 | 20330 ft | 388 kts | 339° |
| 2026-05-05 19:25 | 58.03947 | 11.80926 | 20836 ft | 391 kts | 339° |
| 2026-05-05 19:25 | 58.06612 | 11.79810 | 21340 ft | 394 kts | 339° |
| 2026-05-05 19:25 | 58.09305 | 11.78681 | 21822 ft | 398 kts | 339° |
| 2026-05-05 19:26 | 58.12016 | 11.77543 | 22304 ft | 400 kts | 339° |
| 2026-05-05 19:26 | 58.14750 | 11.76394 | 22762 ft | 404 kts | 339° |
| 2026-05-05 19:26 | 58.17468 | 11.75249 | 23214 ft | 407 kts | 339° |
| 2026-05-05 19:26 | 58.20238 | 11.74081 | 23644 ft | 410 kts | 339° |
| 2026-05-05 19:27 | 58.23031 | 11.72902 | 24064 ft | 411 kts | 339° |
| 2026-05-05 19:27 | 58.25817 | 11.71728 | 24602 ft | 409 kts | 338° |
| 2026-05-05 19:27 | 58.28585 | 11.70563 | 25166 ft | 406 kts | 338° |
| 2026-05-05 19:27 | 58.31336 | 11.69400 | 25698 ft | 405 kts | 338° |
| 2026-05-05 19:28 | 58.34087 | 11.68229 | 25935 ft | 407 kts | 338° |
| 2026-05-05 19:28 | 58.36851 | 11.67050 | 25931 ft | 405 kts | 338° |
| 2026-05-05 19:28 | 58.39597 | 11.65880 | 25949 ft | 404 kts | 338° |
| 2026-05-05 19:28 | 58.42350 | 11.64702 | 25946 ft | 405 kts | 338° |
| 2026-05-05 19:29 | 58.45102 | 11.63523 | 25950 ft | 405 kts | 338° |
| 2026-05-05 19:29 | 58.47856 | 11.62341 | 25951 ft | 406 kts | 338° |
| 2026-05-05 19:29 | 58.50610 | 11.61159 | 25985 ft | 406 kts | 338° |
| 2026-05-05 19:29 | 58.53365 | 11.59974 | 25977 ft | 402 kts | 338° |
| 2026-05-05 19:30 | 58.56049 | 11.58831 | 25939 ft | 389 kts | 338° |
| 2026-05-05 19:30 | 58.58649 | 11.57723 | 25937 ft | 379 kts | 337° |
| 2026-05-05 19:30 | 58.61178 | 11.56638 | 25916 ft | 366 kts | 337° |
| 2026-05-05 19:30 | 58.63641 | 11.55578 | 25735 ft | 358 kts | 336° |
| 2026-05-05 19:31 | 58.66070 | 11.54519 | 25164 ft | 361 kts | 336° |
| 2026-05-05 19:31 | 58.68551 | 11.53418 | 24454 ft | 369 kts | 337° |
| 2026-05-05 19:31 | 58.71059 | 11.52315 | 24004 ft | 369 kts | 337° |
| 2026-05-05 19:31 | 58.73559 | 11.51227 | 23658 ft | 366 kts | 337° |
| 2026-05-05 19:32 | 58.76033 | 11.50153 | 23267 ft | 363 kts | 337° |
| 2026-05-05 19:32 | 58.78493 | 11.49084 | 22842 ft | 360 kts | 337° |
| 2026-05-05 19:32 | 58.80895 | 11.48041 | 22482 ft | 357 kts | 336° |
| 2026-05-05 19:32 | 58.83313 | 11.46989 | 22097 ft | 354 kts | 336° |
| 2026-05-05 19:33 | 58.85711 | 11.45943 | 21698 ft | 351 kts | 336° |
| 2026-05-05 19:33 | 58.88085 | 11.44902 | 21300 ft | 348 kts | 336° |
| 2026-05-05 19:33 | 58.90439 | 11.43868 | 20897 ft | 345 kts | 336° |
| 2026-05-05 19:33 | 58.92774 | 11.42839 | 20490 ft | 343 kts | 336° |
| 2026-05-05 19:34 | 58.95092 | 11.41817 | 20100 ft | 340 kts | 336° |
| 2026-05-05 19:34 | 58.97392 | 11.40802 | 19713 ft | 338 kts | 336° |
| 2026-05-05 19:34 | 58.99675 | 11.39792 | 19326 ft | 336 kts | 336° |
| 2026-05-05 19:35 | 59.04207 | 11.37780 | 18462 ft | 335 kts | 336° |
| 2026-05-05 19:35 | 59.06472 | 11.36775 | 18069 ft | 332 kts | 336° |
| 2026-05-05 19:35 | 59.08711 | 11.35781 | 17649 ft | 329 kts | 336° |
| 2026-05-05 19:35 | 59.10937 | 11.34791 | 17344 ft | 325 kts | 336° |
| 2026-05-05 19:36 | 59.13120 | 11.33821 | 17076 ft | 318 kts | 337° |
| 2026-05-05 19:36 | 59.15247 | 11.32879 | 16927 ft | 308 kts | 336° |
| 2026-05-05 19:36 | 59.17309 | 11.31964 | 16785 ft | 299 kts | 336° |
| 2026-05-05 19:36 | 59.19334 | 11.31172 | 16565 ft | 297 kts | 341° |
| 2026-05-05 19:37 | 59.21382 | 11.30708 | 16315 ft | 295 kts | 343° |
| 2026-05-05 19:37 | 59.23418 | 11.30331 | 16031 ft | 292 kts | 344° |
| 2026-05-05 19:37 | 59.25435 | 11.29957 | 15718 ft | 290 kts | 344° |
| 2026-05-05 19:37 | 59.27435 | 11.29578 | 15422 ft | 287 kts | 345° |
| 2026-05-05 19:38 | 59.29416 | 11.29193 | 15140 ft | 285 kts | 345° |
| 2026-05-05 19:38 | 59.31388 | 11.28803 | 14836 ft | 284 kts | 345° |
| 2026-05-05 19:38 | 59.33349 | 11.28409 | 14547 ft | 282 kts | 346° |
| 2026-05-05 19:38 | 59.35298 | 11.28011 | 14265 ft | 280 kts | 346° |
| 2026-05-05 19:39 | 59.37207 | 11.27617 | 13972 ft | 279 kts | 346° |
| 2026-05-05 19:39 | 59.39129 | 11.27220 | 13693 ft | 277 kts | 347° |
| 2026-05-05 19:39 | 59.41039 | 11.26822 | 13389 ft | 275 kts | 347° |
| 2026-05-05 19:39 | 59.42939 | 11.26428 | 13070 ft | 273 kts | 348° |
| 2026-05-05 19:40 | 59.44819 | 11.26041 | 12802 ft | 270 kts | 348° |
| 2026-05-05 19:40 | 59.46677 | 11.25629 | 12493 ft | 268 kts | 347° |
| 2026-05-05 19:40 | 59.48524 | 11.25187 | 12206 ft | 266 kts | 347° |
| 2026-05-05 19:40 | 59.50358 | 11.24744 | 11912 ft | 265 kts | 347° |
| 2026-05-05 19:41 | 59.52179 | 11.24306 | 11631 ft | 263 kts | 348° |
| 2026-05-05 19:41 | 59.53991 | 11.23871 | 11413 ft | 261 kts | 348° |
| 2026-05-05 19:41 | 59.55790 | 11.23441 | 11310 ft | 259 kts | 348° |
| 2026-05-05 19:41 | 59.57582 | 11.23011 | 11192 ft | 260 kts | 348° |
| 2026-05-05 19:42 | 59.59350 | 11.22588 | 11093 ft | 256 kts | 348° |
| 2026-05-05 19:42 | 59.61116 | 11.22371 | 10939 ft | 257 kts | 4° |
| 2026-05-05 19:42 | 59.62752 | 11.23728 | 10925 ft | 258 kts | 34° |
| 2026-05-05 19:42 | 59.64062 | 11.26210 | 10545 ft | 267 kts | 31° |
| 2026-05-05 19:43 | 59.65747 | 11.27297 | 10229 ft | 254 kts | 353° |
| 2026-05-05 19:43 | 59.67394 | 11.26185 | 9955 ft | 257 kts | 324° |
| 2026-05-05 19:43 | 59.68989 | 11.24375 | 9635 ft | 270 kts | 330° |
| 2026-05-05 19:43 | 59.70700 | 11.22740 | 9289 ft | 275 kts | 333° |
| 2026-05-05 19:44 | 59.72444 | 11.21186 | 8943 ft | 275 kts | 334° |
| 2026-05-05 19:44 | 59.74193 | 11.19682 | 8604 ft | 273 kts | 335° |
| 2026-05-05 19:44 | 59.75940 | 11.18212 | 8319 ft | 272 kts | 335° |
| 2026-05-05 19:44 | 59.77689 | 11.16758 | 7999 ft | 272 kts | 335° |
| 2026-05-05 19:45 | 59.79438 | 11.15314 | 7677 ft | 272 kts | 335° |
| 2026-05-05 19:45 | 59.81150 | 11.13906 | 7392 ft | 265 kts | 335° |
| 2026-05-05 19:45 | 59.82282 | 11.12978 | 7250 ft | 258 kts | 335° |
| 2026-05-05 19:45 | 59.84443 | 11.11208 | 6867 ft | 249 kts | 336° |
| 2026-05-05 19:46 | 59.86030 | 11.09907 | 6576 ft | 243 kts | 336° |
| 2026-05-05 19:46 | 59.87569 | 11.08644 | 6336 ft | 234 kts | 336° |
| 2026-05-05 19:46 | 59.89042 | 11.07436 | 6043 ft | 224 kts | 336° |
| 2026-05-05 19:46 | 59.90448 | 11.06282 | 5787 ft | 212 kts | 336° |
| 2026-05-05 19:47 | 59.91798 | 11.05172 | 5560 ft | 208 kts | 336° |
| 2026-05-05 19:47 | 59.93139 | 11.04069 | 5328 ft | 208 kts | 336° |
| 2026-05-05 19:47 | 59.94475 | 11.02968 | 5083 ft | 208 kts | 336° |
| 2026-05-05 19:47 | 59.95817 | 11.01861 | 4829 ft | 208 kts | 336° |
| 2026-05-05 19:48 | 59.97138 | 11.00772 | 4568 ft | 208 kts | 336° |
| 2026-05-05 19:48 | 59.98514 | 10.99967 | 4314 ft | 207 kts | 359° |
| 2026-05-05 19:48 | 59.99880 | 11.00628 | 4126 ft | 199 kts | 15° |
| 2026-05-05 19:48 | 60.01201 | 11.01339 | 3882 ft | 193 kts | 11° |
| 2026-05-05 19:49 | 60.02053 | 11.01783 | 3724 ft | 189 kts | 12° |
| 2026-05-05 19:49 | 60.03299 | 11.02477 | 3550 ft | 182 kts | 13° |
| 2026-05-05 19:49 | 60.04868 | 11.03383 | 3390 ft | 177 kts | 13° |
| 2026-05-05 19:49 | 60.06041 | 11.04064 | 3138 ft | 172 kts | 13° |
| 2026-05-05 19:50 | 60.07153 | 11.04712 | 2908 ft | 161 kts | 13° |
| 2026-05-05 19:50 | 60.08226 | 11.05335 | 2710 ft | 160 kts | 13° |
| 2026-05-05 19:50 | 60.09305 | 11.05964 | 2479 ft | 160 kts | 12° |
| 2026-05-05 19:50 | 60.10346 | 11.06567 | 2258 ft | 152 kts | 12° |
| 2026-05-05 19:51 | 60.11009 | 11.06953 | 2129 ft | 148 kts | 12° |
| 2026-05-05 19:51 | 60.11971 | 11.07512 | 1959 ft | 140 kts | 12° |
| 2026-05-05 19:51 | 60.12901 | 11.08055 | 1635 ft | 139 kts | 14° |
| 2026-05-05 19:51 | 60.13820 | 11.08629 | 1483 ft | 139 kts | 12° |
| 2026-05-05 19:52 | 60.14751 | 11.09161 | 1324 ft | 140 kts | 12° |
| 2026-05-05 19:52 | 60.15689 | 11.09690 | 1094 ft | 139 kts | 15° |
| 2026-05-05 19:52 | 60.16617 | 11.10224 | 917 ft | 138 kts | 14° |
| 2026-05-05 19:52 | 60.17533 | 11.10754 | 736 ft | 136 kts | 13° |
| 2026-05-05 19:53 | 60.18381 | 11.11238 | 682 ft | 110 kts | 17° |
| 2026-05-05 19:53 | 60.18966 | 11.11578 | 685 ft | 60 kts | 15° |
| 2026-05-05 19:53 | 60.19216 | 11.11703 | 682 ft | 32 kts | 360° |
| 2026-05-05 19:53 | 60.19353 | 11.11633 | 686 ft | 13 kts | 315° |
| 2026-05-05 19:54 | 60.19375 | 11.11532 | 684 ft | 2 kts | 284° |
| 2026-05-05 19:54 | 60.19378 | 11.11514 | 682 ft | 1 kts | 285° |
| 2026-05-05 19:54 | 60.19384 | 11.11477 | 682 ft | 5 kts | 287° |
| 2026-05-05 19:54 | 60.19396 | 11.11397 | 682 ft | 7 kts | 287° |
| 2026-05-05 19:55 | 60.19412 | 11.11284 | 681 ft | 9 kts | 286° |
| 2026-05-05 19:55 | 60.19432 | 11.11145 | 683 ft | 11 kts | 285° |
| 2026-05-05 19:55 | 60.19455 | 11.10981 | 681 ft | 13 kts | 285° |
| 2026-05-05 19:55 | 60.19483 | 11.10790 | 680 ft | 15 kts | 286° |
| 2026-05-05 19:56 | 60.19510 | 11.10595 | 679 ft | 8 kts | 286° |
| 2026-05-05 19:56 | 60.19527 | 11.10480 | 681 ft | 9 kts | 287° |
| 2026-05-05 19:56 | 60.19539 | 11.10339 | 681 ft | 11 kts | 277° |
| 2026-05-05 19:56 | 60.19556 | 11.10211 | 679 ft | 5 kts | 287° |
| 2026-05-05 19:57 | 60.19561 | 11.10177 | 681 ft | 3 kts | 286° |
| 2026-05-05 19:57 | 60.19563 | 11.10165 | 681 ft | 0 kts | 286° |